createdAt,value
2022-07-29T04:41:14.009Z,73.01
2022-07-29T04:42:13.998Z,71.56
2022-07-29T04:43:14.223Z,71.13
2022-07-29T04:44:14.202Z,71.13
2022-07-29T04:45:16.542Z,71.23
2022-07-29T04:46:14.034Z,70.09
2022-07-29T04:47:13.964Z,69.12
2022-07-29T04:48:13.973Z,67.95
2022-07-29T04:49:13.997Z,66.71
2022-07-29T04:50:13.978Z,65.78
2022-07-29T04:51:13.924Z,66.25
2022-07-29T04:52:13.934Z,65.38
2022-07-29T04:53:13.942Z,65.41
2022-07-29T04:54:14.296Z,66.55
2022-07-29T04:55:13.896Z,67.14
2022-07-29T04:56:13.916Z,66.44
2022-07-29T04:57:13.876Z,65.61
2022-07-29T04:58:13.845Z,65.91
2022-07-29T04:59:13.857Z,65.91
2022-07-29T05:00:13.858Z,65.64
2022-07-29T05:01:13.929Z,67.29
2022-07-29T05:02:13.851Z,64.75
2022-07-29T05:03:13.829Z,64.51
2022-07-29T05:04:16.726Z,65.09
2022-07-29T05:05:49.411Z,65.59
2022-07-29T05:06:46.059Z,64.62
2022-07-29T05:07:19.856Z,65.72
2022-07-29T05:08:13.778Z,65.01
2022-07-29T05:09:16.354Z,65.72
2022-07-29T05:10:15.568Z,66.75
2022-07-29T05:11:18.125Z,66.25
2022-07-29T05:12:14.262Z,65.88
2022-07-29T05:13:15.080Z,65.71
2022-07-29T05:14:38.581Z,66.01
2022-07-29T05:15:22.068Z,65.81
2022-07-29T05:16:18.661Z,66.11
2022-07-29T05:17:15.064Z,67.25
2022-07-29T05:18:26.206Z,66.35
2022-07-29T05:19:16.353Z,66.64
2022-07-29T05:20:13.685Z,66.55
2022-07-29T05:21:16.284Z,67.35
2022-07-29T05:22:22.586Z,66.95
2022-07-29T05:23:13.784Z,67.05
2022-07-29T05:24:14.112Z,67.05
2022-07-29T05:25:15.082Z,68.05
2022-07-29T05:26:16.101Z,67.65
2022-07-29T05:27:13.578Z,67.65
2022-07-29T05:28:13.598Z,67.65
2022-07-29T05:29:43.794Z,67.55
2022-07-29T05:30:15.541Z,67.85
2022-07-29T05:31:14.917Z,67.78
2022-07-29T05:32:20.371Z,67.85
2022-07-29T05:33:36.105Z,67.85
2022-07-29T05:34:24.086Z,67.18
2022-07-29T05:35:13.653Z,67.98
2022-07-29T05:36:16.100Z,68.59
2022-07-29T05:37:20.134Z,68.99
2022-07-29T05:38:13.765Z,69.29
2022-07-29T05:39:19.169Z,70.09
2022-07-29T05:40:23.555Z,69.39
2022-07-29T05:41:14.086Z,69.66
2022-07-29T05:42:20.076Z,68.65
2022-07-29T05:43:22.588Z,68.82
2022-07-29T05:44:55.291Z,68.22
2022-07-29T05:45:20.814Z,68.52
2022-07-29T05:46:29.880Z,69.02
2022-07-29T05:47:25.061Z,69.53
2022-07-29T05:48:14.048Z,68.92
2022-07-29T05:49:26.971Z,68.49
2022-07-29T05:50:19.197Z,67.99
2022-07-29T05:51:16.089Z,67.79
2022-07-29T05:52:14.274Z,67.88
2022-07-29T05:53:20.102Z,67.45
2022-07-29T05:54:23.488Z,65.85
2022-07-29T05:55:39.371Z,65.65
2022-07-29T05:56:14.086Z,65.65
2022-07-29T05:57:27.005Z,66.05
2022-07-29T05:58:13.356Z,65.45
2022-07-29T05:59:18.351Z,65.22
2022-07-29T06:00:24.847Z,65.12
2022-07-29T06:01:15.178Z,64.81
2022-07-29T06:02:23.898Z,65.01
2022-07-29T06:12:32.378Z,65.59
2022-07-29T06:13:29.433Z,65.78
2022-07-29T06:14:32.900Z,65.99
2022-07-29T06:15:58.627Z,66.39
2022-07-29T06:16:48.648Z,66.66
2022-07-29T06:17:40.168Z,65.55
2022-07-29T06:20:04.569Z,65.66
2022-07-29T06:20:27.149Z,65.36
2022-07-29T06:21:46.372Z,65.25
2022-07-29T06:22:26.298Z,65.75
2022-07-29T06:23:40.373Z,65.75
2022-07-29T06:25:49.850Z,65.83
2022-07-29T06:26:05.522Z,65.02
2022-07-29T06:27:12.930Z,65.12
2022-07-29T06:29:40.221Z,65.22
2022-07-29T06:30:39.437Z,65.49
2022-07-29T06:31:07.286Z,65.39
2022-07-29T06:33:33.692Z,64.49
2022-07-29T06:33:48.389Z,65.09
2022-07-29T06:35:37.755Z,64.49
2022-07-29T06:37:30.189Z,64.59
2022-07-29T06:37:46.072Z,65.29
2022-07-29T06:38:49.172Z,65.26
2022-07-29T06:39:40.835Z,64.76
2022-07-29T06:40:40.599Z,63.56
2022-07-29T06:41:39.877Z,63.76
2022-07-29T06:42:49.180Z,64.26
2022-07-29T06:43:51.809Z,63.46
2022-07-29T06:44:42.167Z,64.06
2022-07-29T06:45:52.432Z,63.96
2022-07-29T06:46:43.424Z,64.86
2022-07-29T06:48:47.206Z,63.93
2022-07-29T06:48:55.869Z,63.53
2022-07-29T06:49:55.377Z,63.23
2022-07-29T06:50:53.390Z,63.53
2022-07-29T06:51:52.527Z,63.63
2022-07-29T06:52:56.263Z,62.93
2022-07-29T06:53:59.611Z,63.33
2022-07-29T06:54:52.552Z,63.23
2022-07-29T06:55:52.567Z,62.34
2022-07-29T06:56:52.520Z,62.60
2022-07-29T06:57:52.510Z,64.30
2022-07-29T06:58:52.518Z,63.80
2022-07-29T06:59:52.495Z,62.93
2022-07-29T07:00:52.521Z,62.63
2022-07-29T07:01:53.299Z,62.83
2022-07-29T07:02:52.495Z,63.03
2022-07-29T07:03:57.081Z,64.06
2022-07-29T07:04:54.169Z,64.76
2022-07-29T07:05:52.477Z,65.13
2022-07-29T07:06:52.657Z,64.63
2022-07-29T07:07:54.135Z,64.03
2022-07-29T07:08:52.398Z,63.83
2022-07-29T07:09:54.382Z,63.33
2022-07-29T07:10:53.384Z,63.83
2022-07-29T07:11:54.891Z,63.50
2022-07-29T07:12:54.504Z,63.00
2022-07-29T07:13:56.187Z,62.20
2022-07-29T07:14:53.388Z,63.40
2022-07-29T07:15:55.102Z,63.50
2022-07-29T07:16:52.772Z,62.20
2022-07-29T07:17:52.314Z,62.30
2022-07-29T07:18:52.885Z,63.10
2022-07-29T07:19:53.285Z,63.10
2022-07-29T07:20:55.626Z,63.00
2022-07-29T07:21:53.214Z,63.20
2022-07-29T07:22:53.459Z,62.57
2022-07-29T07:23:54.259Z,63.17
2022-07-29T07:24:52.327Z,62.97
2022-07-29T07:25:52.292Z,62.54
2022-07-29T07:26:54.061Z,62.84
2022-07-29T07:27:55.037Z,61.91
2022-07-29T07:28:52.449Z,62.12
2022-07-29T07:29:54.640Z,60.59
2022-07-29T07:30:52.220Z,59.59
2022-07-29T07:31:57.555Z,59.39
2022-07-29T07:32:54.713Z,59.86
2022-07-29T07:33:52.941Z,59.96
2022-07-29T07:34:52.173Z,59.56
2022-07-29T07:35:57.901Z,58.27
2022-07-29T07:36:52.150Z,59.96
2022-07-29T07:37:52.681Z,59.56
2022-07-29T07:38:52.144Z,59.36
2022-07-29T07:39:54.857Z,58.97
2022-07-29T07:40:57.125Z,59.96
2022-07-29T07:41:52.925Z,59.86
2022-07-29T07:42:53.360Z,59.14
2022-07-29T07:43:55.651Z,56.35
2022-07-29T07:45:12.455Z,56.82
2022-07-29T07:45:54.007Z,55.93
2022-07-29T07:46:52.360Z,56.02
2022-07-29T07:47:52.922Z,56.62
2022-07-29T07:48:52.116Z,55.73
2022-07-29T07:49:59.347Z,55.33
2022-07-29T07:50:56.794Z,55.93
2022-07-29T07:51:52.018Z,56.59
2022-07-29T07:52:52.256Z,56.59
2022-07-29T07:53:52.022Z,56.99
2022-07-29T07:54:52.017Z,57.09
2022-07-29T07:56:53.185Z,57.99
2022-07-29T07:57:52.016Z,56.89
2022-07-29T07:58:52.861Z,57.76
2022-07-29T08:00:23.020Z,56.37
2022-07-29T08:02:29.807Z,54.88
2022-07-29T08:02:35.171Z,55.35
2022-07-29T08:03:36.785Z,55.05
2022-07-29T08:05:04.902Z,54.55
2022-07-29T08:05:38.660Z,54.88
2022-07-29T08:07:01.881Z,54.88
2022-07-29T08:07:34.591Z,55.67
2022-07-29T08:08:34.559Z,55.18
2022-07-29T08:11:14.590Z,55.65
2022-07-29T08:12:24.442Z,55.05
2022-07-29T08:13:14.873Z,56.64
2022-07-29T08:14:56.262Z,55.74
2022-07-29T08:15:14.690Z,54.25
2022-07-29T08:17:51.380Z,53.96
2022-07-29T08:18:12.369Z,54.43
2022-07-29T08:19:20.954Z,54.43
2022-07-29T08:20:11.654Z,56.24
2022-07-29T08:31:09.047Z,55.55
2022-07-29T08:45:36.892Z,51.54
2022-07-29T08:46:36.818Z,51.25
2022-07-29T08:47:36.845Z,51.35
2022-07-29T08:48:36.860Z,50.56
2022-07-29T08:49:36.825Z,49.76
2022-07-29T08:50:36.815Z,50.16
2022-07-29T08:51:36.784Z,49.96
2022-07-29T08:52:36.791Z,50.76
2022-07-29T08:53:36.781Z,50.63
2022-07-29T08:54:37.010Z,51.03
2022-07-29T08:55:36.755Z,50.34
2022-07-29T08:56:36.792Z,51.12
2022-07-29T08:57:37.128Z,52.14
2022-07-29T08:58:38.498Z,50.85
2022-07-29T08:59:36.712Z,51.35
2022-07-29T09:00:36.693Z,51.54
2022-07-29T09:01:45.226Z,50.36
2022-07-29T09:02:36.669Z,50.46
2022-07-29T09:03:36.714Z,50.93
2022-07-29T09:04:36.645Z,51.03
2022-07-29T09:08:50.960Z,50.34
2022-07-29T09:13:15.621Z,49.84
2022-07-29T09:17:51.398Z,50.81
2022-07-29T09:18:51.438Z,50.81
2022-07-29T09:19:51.398Z,51.28
2022-07-29T09:20:51.536Z,51.57
2022-07-29T09:21:51.387Z,51.47
2022-07-29T09:22:51.400Z,49.59
2022-07-29T09:23:51.374Z,50.28
2022-07-29T09:24:51.376Z,50.28
2022-07-29T09:25:51.373Z,50.36
2022-07-29T09:26:51.651Z,50.65
2022-07-29T09:27:51.337Z,50.95
2022-07-29T09:28:51.356Z,50.56
2022-07-29T09:29:51.338Z,51.54
2022-07-29T09:30:51.325Z,50.76
2022-07-29T09:31:51.385Z,51.45
2022-07-29T09:32:51.294Z,51.97
2022-07-29T09:33:51.284Z,52.37
2022-07-29T09:34:53.680Z,52.66
2022-07-29T09:35:57.169Z,53.45
2022-07-29T09:36:51.279Z,51.28
2022-07-29T09:37:51.286Z,52.89
2022-07-29T09:38:51.246Z,52.00
2022-07-29T09:39:51.240Z,53.11
2022-07-29T09:40:51.225Z,53.61
2022-07-29T09:41:51.267Z,54.50
2022-07-29T09:42:51.215Z,53.11
2022-07-29T09:43:51.198Z,54.21
2022-07-29T09:44:51.190Z,54.10
2022-07-29T09:45:51.186Z,54.00
2022-07-29T09:46:51.238Z,54.00
2022-07-29T09:47:51.176Z,53.91
2022-07-29T09:48:51.179Z,54.50
2022-07-29T09:49:51.147Z,53.61
2022-07-29T09:50:51.197Z,53.61
2022-07-29T09:51:51.163Z,54.00
2022-07-29T09:52:51.207Z,52.81
2022-07-29T09:53:51.138Z,53.63
2022-07-29T09:54:51.161Z,54.33
2022-07-29T09:55:51.636Z,54.93
2022-07-29T09:56:51.100Z,56.02
2022-07-29T09:57:51.076Z,54.03
2022-07-29T09:58:51.113Z,54.13
2022-07-29T09:59:51.052Z,54.63
2022-07-29T10:00:51.164Z,53.44
2022-07-29T10:01:51.061Z,53.51
2022-07-29T10:02:51.092Z,53.11
2022-07-29T10:03:51.154Z,53.14
2022-07-29T10:04:51.011Z,53.93
2022-07-29T10:05:51.007Z,53.73
2022-07-29T10:06:51.050Z,53.26
2022-07-29T10:07:53.975Z,55.65
2022-07-29T10:08:50.977Z,54.85
2022-07-29T10:09:52.706Z,55.94
2022-07-29T10:10:50.954Z,54.75
2022-07-29T10:11:50.991Z,54.25
2022-07-29T10:12:50.936Z,52.96
2022-07-29T10:13:50.938Z,55.52
2022-07-29T10:14:50.926Z,52.44
2022-07-29T10:15:50.941Z,52.84
2022-07-29T10:18:45.876Z,55.02
2022-07-29T10:19:45.903Z,54.82
2022-07-29T10:20:45.887Z,55.00
2022-07-29T10:21:45.900Z,53.31
2022-07-29T10:22:54.117Z,52.42
2022-07-29T10:23:46.248Z,53.01
2022-07-29T10:24:45.847Z,54.10
2022-07-29T10:25:46.701Z,54.80
2022-07-29T10:26:45.867Z,53.51
2022-07-29T10:27:45.857Z,52.72
2022-07-29T10:28:45.811Z,55.00
2022-07-29T10:29:45.825Z,54.08
2022-07-29T10:30:45.799Z,53.51
2022-07-29T10:31:45.853Z,56.16
2022-07-29T10:32:45.782Z,55.96
2022-07-29T10:33:45.775Z,53.19
2022-07-29T10:34:45.761Z,52.59
2022-07-29T10:35:45.784Z,53.36
2022-07-29T10:36:45.782Z,54.25
2022-07-29T10:37:46.173Z,52.26
2022-07-29T10:38:47.128Z,54.25
2022-07-29T10:39:49.859Z,50.58
2022-07-29T10:40:45.712Z,50.98
2022-07-29T10:41:45.757Z,50.36
2022-07-29T10:42:45.697Z,50.04
2022-07-29T10:43:45.686Z,51.03
2022-07-29T10:44:45.670Z,49.54
2022-07-29T10:45:45.700Z,49.34
2022-07-29T10:46:45.787Z,50.51
2022-07-29T10:47:45.646Z,49.91
2022-07-29T10:48:45.658Z,50.90
2022-07-29T10:49:45.634Z,49.32
2022-07-29T10:50:45.648Z,50.81
2022-07-29T10:51:45.671Z,50.71
2022-07-29T10:52:45.599Z,52.59
2022-07-29T10:53:45.608Z,51.89
2022-07-29T10:54:45.584Z,52.46
2022-07-29T10:55:45.580Z,50.38
2022-07-29T10:56:45.567Z,49.40
2022-07-29T12:07:11.129Z,48.82
2022-07-29T12:07:20.399Z,51.57
2022-07-29T12:08:19.540Z,52.07
2022-07-29T12:09:19.529Z,51.15
2022-07-29T12:10:30.012Z,52.47
2022-07-29T12:13:08.592Z,51.25
2022-07-29T12:14:08.631Z,51.54
2022-07-29T12:15:17.084Z,53.23
2022-07-29T12:16:16.737Z,51.82
2022-07-29T12:17:08.579Z,52.41
2022-07-29T12:18:08.562Z,48.75
2022-07-29T12:19:16.622Z,50.73
2022-07-29T12:20:08.625Z,48.87
2022-07-29T12:21:08.537Z,49.49
2022-07-29T12:22:08.520Z,49.99
2022-07-29T12:23:08.513Z,51.28
2022-07-29T12:24:09.385Z,51.15
2022-07-29T12:25:32.831Z,49.44
2022-07-29T12:26:10.659Z,49.54
2022-07-29T12:27:08.465Z,48.55
2022-07-29T12:28:08.452Z,50.43
2022-07-29T12:29:14.075Z,49.32
2022-07-29T12:30:08.499Z,49.52
2022-07-29T12:31:08.514Z,48.23
2022-07-29T12:32:15.102Z,50.11
2022-07-29T12:33:08.425Z,49.02
2022-07-29T12:34:08.418Z,50.11
2022-07-29T12:35:08.404Z,48.70
2022-07-29T12:36:12.806Z,47.81
2022-07-29T12:37:08.386Z,47.53
2022-07-29T12:38:08.387Z,50.60
2022-07-29T12:39:08.353Z,48.33
2022-07-29T12:40:08.403Z,49.32
2022-07-29T12:41:08.358Z,48.72
2022-07-29T12:42:12.196Z,48.92
2022-07-29T12:43:08.347Z,49.10
2022-07-29T12:44:08.324Z,49.29
2022-07-29T12:45:08.319Z,49.40
2022-07-29T12:46:08.394Z,47.44
2022-07-29T12:47:08.296Z,49.42
2022-07-29T12:48:08.293Z,47.53
2022-07-29T12:49:08.451Z,49.12
2022-07-29T12:50:08.316Z,48.13
2022-07-29T12:51:08.259Z,47.63
2022-07-29T12:52:08.266Z,48.72
2022-07-29T12:53:08.253Z,49.02
2022-07-29T12:54:08.242Z,49.02
2022-07-29T12:55:08.240Z,49.59
2022-07-29T12:56:26.588Z,48.60
2022-07-29T12:57:08.206Z,47.22
2022-07-29T12:58:08.203Z,49.12
2022-07-29T12:59:08.185Z,47.63
2022-07-29T13:00:08.228Z,46.94
2022-07-29T13:01:17.144Z,48.75
2022-07-29T13:02:08.203Z,48.15
2022-07-29T13:03:08.157Z,49.44
2022-07-29T13:04:08.142Z,48.35
2022-07-29T13:05:08.233Z,46.67
2022-07-29T13:06:08.128Z,48.85
2022-07-29T13:07:08.249Z,48.45
2022-07-29T13:08:08.110Z,47.66
2022-07-29T13:09:08.109Z,47.36
2022-07-29T13:10:08.183Z,48.53
2022-07-29T13:11:08.087Z,48.92
2022-07-29T13:12:08.135Z,47.83
2022-07-29T13:13:08.069Z,47.63
2022-07-29T13:14:08.077Z,47.44
2022-07-29T13:15:08.112Z,48.23
2022-07-29T13:16:08.096Z,47.53
2022-07-29T13:17:08.042Z,48.23
2022-07-29T13:18:08.035Z,47.83
2022-07-29T13:19:08.017Z,47.34
2022-07-29T13:20:08.920Z,47.63
2022-07-29T13:21:07.995Z,49.62
2022-07-29T13:22:08.008Z,49.62
2022-07-29T13:23:07.984Z,49.52
2022-07-29T13:24:07.973Z,47.44
2022-07-29T13:25:08.027Z,46.55
2022-07-29T13:26:07.955Z,47.24
2022-07-29T13:27:07.961Z,48.13
2022-07-29T13:28:07.941Z,47.63
2022-07-29T13:29:07.935Z,49.32
2022-07-29T13:30:07.982Z,48.15
2022-07-29T13:31:07.922Z,49.05
2022-07-29T13:32:07.925Z,50.13
2022-07-29T13:33:07.894Z,49.34
2022-07-29T13:34:07.886Z,50.43
2022-07-29T13:35:07.880Z,50.63
2022-07-29T13:36:07.880Z,50.04
2022-07-29T13:37:07.888Z,50.23
2022-07-29T13:38:07.858Z,48.92
2022-07-29T13:39:07.843Z,48.92
2022-07-29T13:40:07.852Z,48.43
2022-07-29T13:41:07.829Z,48.21
2022-07-29T13:42:10.779Z,47.71
2022-07-29T13:43:07.828Z,48.28
2022-07-29T13:44:07.802Z,47.69
2022-07-29T13:45:07.804Z,48.28
2022-07-29T13:46:07.835Z,47.04
2022-07-29T13:47:07.785Z,47.83
2022-07-29T13:48:07.776Z,47.34
2022-07-29T13:49:07.901Z,48.72
2022-07-29T13:50:07.784Z,47.53
2022-07-29T13:51:07.741Z,48.23
2022-07-29T13:52:07.745Z,48.33
2022-07-29T13:53:07.721Z,48.43
2022-07-29T13:54:07.723Z,48.33
2022-07-29T13:55:07.706Z,48.23
2022-07-29T13:56:07.698Z,48.23
2022-07-29T13:57:07.701Z,47.24
2022-07-29T13:58:07.680Z,47.04
2022-07-29T13:59:07.687Z,46.25
2022-07-29T14:00:07.667Z,46.55
2022-07-29T14:01:07.745Z,47.04
2022-07-29T14:02:07.674Z,48.72
2022-07-29T14:03:07.635Z,48.13
2022-07-29T14:04:07.702Z,48.23
2022-07-29T14:05:08.684Z,48.90
2022-07-29T14:06:07.620Z,46.82
2022-07-29T14:07:07.614Z,46.62
2022-07-29T14:08:07.598Z,46.62
2022-07-29T14:09:07.586Z,47.91
2022-07-29T14:10:07.581Z,47.12
2022-07-29T14:11:07.562Z,46.92
2022-07-29T14:12:07.579Z,47.61
2022-07-29T14:13:21.825Z,46.72
2022-07-29T14:14:07.549Z,47.02
2022-07-29T14:15:07.532Z,46.92
2022-07-29T14:16:07.529Z,47.22
2022-07-29T14:17:07.985Z,48.01
2022-07-29T14:18:07.518Z,48.50
2022-07-29T14:19:07.518Z,50.58
2022-07-29T14:20:07.505Z,50.48
2022-07-29T14:21:07.487Z,51.07
2022-07-29T14:22:07.493Z,48.11
2022-07-29T14:23:07.519Z,47.04
2022-07-29T14:24:16.292Z,46.84
2022-07-29T14:25:14.747Z,47.24
2022-07-29T14:26:08.775Z,47.63
2022-07-29T14:27:07.664Z,47.24
2022-07-29T14:28:07.525Z,47.53
2022-07-29T14:29:07.452Z,47.83
2022-07-29T14:30:07.438Z,46.84
2022-07-29T14:31:07.402Z,47.06
2022-07-29T14:32:07.567Z,48.05
2022-07-29T14:33:07.403Z,48.65
2022-07-29T14:34:07.410Z,48.05
2022-07-29T14:35:07.393Z,48.45
2022-07-29T14:36:07.364Z,48.55
2022-07-29T14:37:07.373Z,49.94
2022-07-29T14:38:07.359Z,50.43
2022-07-29T14:39:07.351Z,50.53
2022-07-29T14:40:07.325Z,50.93
2022-07-29T14:41:07.316Z,51.52
2022-07-29T14:42:07.352Z,51.23
2022-07-29T14:43:07.297Z,51.03
2022-07-29T14:44:07.295Z,50.83
2022-07-29T14:45:07.316Z,51.23
2022-07-29T14:46:08.590Z,50.23
2022-07-29T14:47:08.047Z,51.05
2022-07-29T14:48:07.280Z,52.84
2022-07-29T14:49:07.305Z,52.73
2022-07-29T14:50:07.277Z,52.26
2022-07-29T14:51:07.233Z,52.07
2022-07-29T14:52:07.242Z,52.07
2022-07-29T14:53:07.217Z,52.26
2022-07-29T14:54:07.204Z,52.37
2022-07-29T14:55:16.378Z,51.89
2022-07-29T14:56:34.170Z,52.98
2022-07-29T14:57:07.207Z,53.08
2022-07-29T14:58:12.084Z,53.48
2022-07-29T14:59:07.180Z,53.19
2022-07-29T15:00:07.154Z,56.51
2022-07-29T15:01:07.216Z,57.93
2022-07-29T15:02:07.184Z,59.52
2022-07-29T15:03:11.188Z,62.83
2022-07-29T15:04:07.119Z,61.83
2022-07-29T15:05:07.119Z,63.33
2022-07-29T15:06:07.097Z,63.46
2022-07-29T15:07:07.109Z,63.66
2022-07-29T15:08:07.081Z,64.65
2022-07-29T15:09:07.092Z,64.85
2022-07-29T15:10:07.074Z,65.08
2022-07-29T15:11:07.063Z,66.77
2022-07-29T15:12:07.079Z,65.68
2022-07-29T15:13:07.038Z,67.10
2022-07-29T15:14:07.032Z,67.00
2022-07-29T15:15:07.074Z,66.41
2022-07-29T15:16:07.075Z,66.91
2022-07-29T15:17:07.126Z,68.93
2022-07-29T15:18:07.048Z,69.62
2022-07-29T15:19:07.034Z,70.26
2022-07-29T15:20:06.988Z,71.45
2022-07-29T15:21:06.998Z,71.39
2022-07-29T15:22:07.091Z,72.58
2022-07-29T15:23:06.978Z,71.39
2022-07-29T15:24:06.957Z,71.72
2022-07-29T15:25:06.944Z,73.52
2022-07-29T15:26:06.922Z,72.62
2022-07-29T15:27:06.929Z,73.72
2022-07-29T15:28:06.925Z,72.55
2022-07-29T15:29:06.920Z,72.75
2022-07-29T15:30:06.890Z,74.58
2022-07-29T15:31:06.895Z,75.18
2022-07-29T15:32:06.931Z,73.58
2022-07-29T15:33:06.883Z,73.79
2022-07-29T15:34:06.851Z,73.52
2022-07-29T15:35:06.882Z,74.92
2022-07-29T15:36:06.846Z,74.82
2022-07-29T15:37:06.852Z,72.32
2022-07-29T15:38:06.828Z,71.83
2022-07-29T15:39:06.822Z,71.72
2022-07-29T15:40:06.812Z,74.12
2022-07-29T15:41:06.804Z,72.45
2022-07-29T15:42:06.806Z,73.46
2022-07-29T15:43:07.007Z,73.96
2022-07-29T15:44:06.782Z,74.05
2022-07-29T15:45:06.771Z,74.49
2022-07-29T15:46:06.843Z,74.29
2022-07-29T15:47:06.747Z,75.09
2022-07-29T15:48:06.746Z,74.59
2022-07-29T15:49:06.774Z,75.19
2022-07-29T15:50:06.729Z,76.03
2022-07-29T15:51:06.712Z,75.93
2022-07-29T15:52:06.724Z,75.02
2022-07-29T15:53:06.693Z,74.83
2022-07-29T15:54:06.680Z,74.43
2022-07-29T15:55:06.696Z,75.69
2022-07-29T15:56:06.675Z,74.69
2022-07-29T15:57:06.657Z,75.19
2022-07-29T15:58:06.659Z,74.59
2022-07-29T15:59:06.646Z,74.79
2022-07-29T16:00:06.629Z,74.69
2022-07-29T16:01:06.685Z,73.29
2022-07-29T16:02:06.616Z,73.59
2022-07-29T16:03:06.628Z,73.39
2022-07-29T16:04:06.657Z,72.69
2022-07-29T16:05:09.279Z,73.13
2022-07-29T16:06:06.577Z,73.93
2022-07-29T16:07:06.573Z,73.83
2022-07-29T16:08:06.622Z,74.46
2022-07-29T16:09:06.553Z,74.26
2022-07-29T16:10:06.564Z,72.86
2022-07-29T16:11:06.540Z,73.66
2022-07-29T16:12:15.422Z,74.30
2022-07-29T16:13:06.545Z,74.40
2022-07-29T16:14:06.504Z,75.23
2022-07-29T16:15:09.912Z,74.93
2022-07-29T16:16:06.490Z,74.43
2022-07-29T16:17:06.497Z,75.13
2022-07-29T16:18:06.574Z,76.04
2022-07-29T16:19:06.487Z,76.34
2022-07-29T16:20:06.509Z,75.43
2022-07-29T16:21:06.450Z,75.34
2022-07-29T16:22:06.486Z,75.84
2022-07-29T16:23:06.497Z,76.84
2022-07-29T16:24:06.526Z,78.18
2022-07-29T16:25:06.513Z,78.98
2022-07-29T16:26:06.434Z,78.68
2022-07-29T16:27:06.435Z,77.87
2022-07-29T16:28:06.393Z,76.47
2022-07-29T16:29:06.418Z,77.48
2022-07-29T16:30:06.387Z,76.31
2022-07-29T16:31:06.362Z,76.91
2022-07-29T16:32:06.567Z,77.45
2022-07-29T16:33:08.354Z,78.66
2022-07-29T16:34:06.357Z,78.45
2022-07-29T16:35:06.338Z,78.79
2022-07-29T16:36:06.316Z,78.69
2022-07-29T16:37:06.306Z,78.09
2022-07-29T16:38:06.309Z,79.80
2022-07-29T16:39:06.303Z,79.90
2022-07-29T16:40:06.299Z,80.70
2022-07-29T16:41:06.305Z,80.43
2022-07-29T16:42:06.298Z,80.43
2022-07-29T16:43:06.573Z,82.75
2022-07-29T16:44:06.375Z,82.45
2022-07-29T16:45:06.253Z,82.24
2022-07-29T16:46:06.325Z,82.54
2022-07-29T16:47:06.334Z,82.54
2022-07-29T16:48:06.224Z,83.15
2022-07-29T16:49:06.294Z,82.75
2022-07-29T16:50:06.228Z,83.15
2022-07-29T16:51:06.208Z,83.35
2022-07-29T16:52:06.170Z,82.84
2022-07-29T16:53:06.174Z,83.04
2022-07-29T16:54:06.168Z,83.45
2022-07-29T16:55:06.178Z,83.29
2022-07-29T16:56:06.157Z,83.49
2022-07-29T16:57:06.191Z,82.98
2022-07-29T16:58:06.132Z,81.84
2022-07-29T16:59:06.123Z,82.89
2022-07-29T17:00:06.138Z,81.98
2022-07-29T17:01:06.153Z,83.49
2022-07-29T17:02:06.152Z,82.54
2022-07-29T17:03:06.092Z,82.45
2022-07-29T17:04:06.081Z,83.59
2022-07-29T17:05:06.097Z,83.49
2022-07-29T17:06:06.099Z,83.39
2022-07-29T17:07:06.052Z,84.09
2022-07-29T17:08:06.037Z,84.69
2022-07-29T17:09:06.058Z,84.99
2022-07-29T17:10:06.113Z,84.89
2022-07-29T17:11:06.048Z,85.84
2022-07-29T17:12:06.025Z,85.33
2022-07-29T17:13:05.993Z,84.63
2022-07-29T17:14:05.973Z,84.83
2022-07-29T17:15:05.990Z,83.99
2022-07-29T17:16:06.066Z,84.89
2022-07-29T17:17:13.701Z,84.49
2022-07-29T17:18:12.520Z,83.89
2022-07-29T17:19:05.941Z,83.29
2022-07-29T17:20:05.961Z,83.99
2022-07-29T17:21:05.946Z,83.89
2022-07-29T17:22:19.072Z,82.98
2022-07-29T17:23:05.921Z,82.62
2022-07-29T17:24:05.908Z,82.72
2022-07-29T17:25:05.938Z,83.79
2022-07-29T17:26:05.942Z,84.23
2022-07-29T17:27:08.705Z,84.69
2022-07-29T17:28:05.954Z,84.83
2022-07-29T17:29:05.850Z,84.74
2022-07-29T17:30:05.832Z,85.74
2022-07-29T17:31:05.983Z,84.53
2022-07-29T17:32:07.570Z,84.43
2022-07-29T17:33:05.810Z,85.03
2022-07-29T17:34:05.826Z,85.64
2022-07-29T17:35:05.826Z,84.63
2022-07-29T17:36:05.793Z,83.12
2022-07-29T17:37:05.816Z,84.13
2022-07-29T17:38:05.816Z,84.33
2022-07-29T17:39:05.768Z,83.23
2022-07-29T17:40:05.751Z,83.63
2022-07-29T17:41:07.791Z,84.29
2022-07-29T17:42:07.166Z,83.89
2022-07-29T17:43:05.814Z,83.33
2022-07-29T17:44:05.737Z,82.62
2022-07-29T17:45:05.710Z,81.92
2022-07-29T17:46:07.841Z,81.62
2022-07-29T17:47:15.554Z,81.85
2022-07-29T17:48:18.148Z,81.65
2022-07-29T17:49:10.106Z,82.60
2022-07-29T17:50:05.711Z,82.90
2022-07-29T17:51:05.915Z,83.51
2022-07-29T17:52:05.838Z,84.21
2022-07-29T17:53:15.542Z,84.51
2022-07-29T17:54:07.394Z,84.11
2022-07-29T17:57:02.912Z,85.52
2022-07-29T17:58:08.213Z,85.66
2022-07-29T17:59:06.266Z,84.65
2022-07-29T17:59:59.651Z,84.95
2022-07-29T18:01:23.426Z,85.76
2022-07-29T18:02:01.251Z,86.57
2022-07-29T18:03:00.689Z,86.57
2022-07-29T18:04:03.342Z,84.95
2022-07-29T18:05:01.399Z,84.85
2022-07-29T18:06:00.845Z,84.75
2022-07-29T18:07:01.020Z,84.85
2022-07-29T18:08:00.550Z,85.66
2022-07-29T18:14:11.831Z,81.33
2022-07-29T18:15:09.656Z,81.93
2022-07-29T18:16:09.479Z,81.13
2022-07-29T18:17:11.369Z,78.61
2022-07-29T18:21:54.448Z,81.77
2022-07-29T18:30:24.824Z,82.68
2022-07-29T18:31:23.696Z,83.08
2022-07-29T18:32:18.776Z,81.77
2022-07-29T18:33:21.795Z,82.92
2022-07-29T18:36:15.074Z,82.31
2022-07-29T18:52:55.969Z,85.46
2022-07-29T18:56:28.338Z,84.85
2022-07-29T18:56:34.536Z,86.67
2022-07-29T18:57:54.644Z,86.77
2022-07-29T18:58:35.062Z,87.01
2022-07-29T18:59:34.261Z,87.32
2022-07-29T19:00:41.470Z,87.52
2022-07-29T19:01:44.464Z,87.01
2022-07-29T19:02:33.705Z,87.92
2022-07-29T19:03:33.205Z,88.12
2022-07-29T19:04:33.455Z,88.43
2022-07-29T19:05:36.495Z,88.02
2022-07-29T19:06:37.038Z,88.02
2022-07-29T19:07:33.203Z,88.53
2022-07-29T19:08:36.613Z,88.43
2022-07-29T19:11:55.528Z,88.32
2022-07-29T19:12:03.689Z,89.13
2022-07-29T19:13:00.803Z,89.34
2022-07-29T19:14:00.780Z,90.14
2022-07-29T19:15:00.773Z,89.03
2022-07-29T19:16:00.816Z,89.74
2022-07-29T19:17:04.456Z,89.19
2022-07-29T19:18:09.129Z,88.68
2022-07-29T19:19:01.548Z,89.09
2022-07-29T19:20:00.786Z,88.48
2022-07-29T19:21:00.760Z,88.18
2022-07-29T19:22:00.748Z,88.48
2022-07-29T19:23:05.370Z,87.78
2022-07-29T19:29:13.169Z,88.48
2022-07-29T19:34:15.609Z,89.03
2022-07-29T19:34:46.468Z,89.13
2022-07-29T19:37:30.932Z,89.23
2022-07-29T19:38:30.790Z,89.54
2022-07-29T19:41:15.393Z,89.37
2022-07-29T19:43:54.315Z,88.93
2022-07-29T19:46:07.340Z,88.77
2022-07-29T19:46:19.383Z,89.68
2022-07-29T19:49:12.230Z,89.78
2022-07-29T19:50:52.458Z,90.28
2022-07-29T19:51:13.082Z,89.98
2022-07-29T19:52:15.055Z,89.68
2022-07-29T19:59:01.739Z,88.73
2022-07-29T20:00:02.682Z,88.93
2022-07-29T20:00:52.306Z,88.53
2022-07-29T20:01:51.256Z,88.77
2022-07-29T20:02:50.741Z,89.07
2022-07-29T20:05:37.673Z,90.49
2022-07-29T20:06:43.274Z,89.58
2022-07-29T20:11:06.083Z,89.28
2022-07-29T20:12:06.467Z,89.37
2022-07-29T20:15:10.805Z,88.87
2022-07-29T20:16:04.590Z,89.48
2022-07-29T20:17:06.509Z,89.58
2022-07-29T20:18:07.944Z,89.58
2022-07-29T20:19:04.524Z,89.58
2022-07-29T20:20:07.564Z,89.68
2022-07-29T20:21:37.851Z,90.19
2022-07-29T20:22:49.808Z,89.78
2022-07-29T20:23:06.365Z,89.48
2022-07-29T20:24:15.565Z,89.52
2022-07-29T20:25:29.928Z,89.83
2022-07-29T20:26:09.739Z,90.03
2022-07-29T20:27:26.276Z,89.72
2022-07-29T20:28:04.495Z,89.72
2022-07-29T20:29:06.503Z,89.88
2022-07-29T20:30:06.241Z,89.72
2022-07-29T20:31:13.431Z,90.28
2022-07-29T20:32:05.038Z,90.08
2022-07-29T20:33:17.997Z,90.39
2022-07-29T20:34:04.366Z,90.79
2022-07-29T20:35:04.835Z,90.49
2022-07-29T20:36:04.350Z,90.28
2022-07-29T20:37:04.355Z,89.68
2022-07-29T20:38:07.822Z,90.03
2022-07-29T20:39:05.561Z,90.03
2022-07-29T20:40:12.644Z,90.63
2022-07-29T20:41:42.605Z,91.24
2022-07-29T20:42:04.294Z,90.63
2022-07-29T20:43:10.595Z,90.83
2022-07-29T20:44:04.827Z,90.43
2022-07-29T20:45:08.599Z,90.12